BEL1PA LDZA-EBBR
Flight info
| Callsign | BEL1PA |
|---|---|
| Flight time | N/A |
| Altitude | 38000 |
| Route | PODET DCT RADLY DCT SIMBA DCT KEMES DCT TEKTU DCT TESGA DCT UMUPU T880 BATTY |
| Aircraft | A320/M-SDE3FGHIRWY/LB1 |
Departure
| Time | 2026-05-01 12:05 |
|---|---|
| Airport | Zagreb Franjo Tuđman International Airport (LDZA) |
Arrival
| Time | N/A |
|---|---|
| Airport | Brussels Airport (EBBR) |
| Time | Latitude | Longitude | Altitude | Speed | Heading |
|---|---|---|---|---|---|
| 2026-05-01 11:46 | 45.74207 | 16.07875 | 364 ft | 0 kts | 136° |
| 2026-05-01 11:58 | 45.74222 | 16.07854 | 360 ft | 4 kts | 134° |
| 2026-05-01 11:58 | 45.74260 | 16.07801 | 367 ft | 4 kts | 154° |
| 2026-05-01 11:59 | 45.74276 | 16.07796 | 363 ft | 2 kts | 226° |
| 2026-05-01 11:59 | 45.74277 | 16.07797 | 363 ft | 0 kts | 227° |
| 2026-05-01 12:00 | 45.74239 | 16.07737 | 359 ft | 11 kts | 227° |
| 2026-05-01 12:01 | 45.74173 | 16.07638 | 362 ft | 16 kts | 226° |
| 2026-05-01 12:01 | 45.74085 | 16.07505 | 359 ft | 14 kts | 225° |
| 2026-05-01 12:01 | 45.74093 | 16.07370 | 359 ft | 18 kts | 318° |
| 2026-05-01 12:01 | 45.74198 | 16.07232 | 359 ft | 23 kts | 311° |
| 2026-05-01 12:02 | 45.74141 | 16.07038 | 359 ft | 26 kts | 224° |
| 2026-05-01 12:02 | 45.74003 | 16.06830 | 359 ft | 31 kts | 227° |
| 2026-05-01 12:02 | 45.73842 | 16.06586 | 359 ft | 36 kts | 226° |
| 2026-05-01 12:02 | 45.73659 | 16.06308 | 359 ft | 40 kts | 227° |
| 2026-05-01 12:03 | 45.73495 | 16.06059 | 362 ft | 28 kts | 226° |
| 2026-05-01 12:03 | 45.73350 | 16.05839 | 359 ft | 33 kts | 227° |
| 2026-05-01 12:03 | 45.73193 | 16.05598 | 365 ft | 20 kts | 228° |
| 2026-05-01 12:03 | 45.73126 | 16.05497 | 362 ft | 16 kts | 231° |
| 2026-05-01 12:04 | 45.73109 | 16.05327 | 362 ft | 18 kts | 296° |
| 2026-05-01 12:04 | 45.73192 | 16.05252 | 365 ft | 9 kts | 347° |
| 2026-05-01 12:04 | 45.73244 | 16.05281 | 362 ft | 11 kts | 45° |
| 2026-05-01 12:04 | 45.73329 | 16.05411 | 362 ft | 32 kts | 46° |
| 2026-05-01 12:05 | 45.73642 | 16.05886 | 367 ft | 99 kts | 47° |
| 2026-05-01 12:05 | 45.74957 | 16.07914 | 965 ft | 151 kts | 47° |
| 2026-05-01 12:05 | 45.75673 | 16.09025 | 1679 ft | 153 kts | 45° |
| 2026-05-01 12:06 | 45.76399 | 16.10142 | 2418 ft | 153 kts | 46° |
| 2026-05-01 12:06 | 45.77131 | 16.11248 | 3116 ft | 153 kts | 47° |
| 2026-05-01 12:06 | 45.77862 | 16.12352 | 3835 ft | 153 kts | 45° |
| 2026-05-01 12:06 | 45.78592 | 16.13454 | 4450 ft | 153 kts | 45° |
| 2026-05-01 12:07 | 45.79322 | 16.14559 | 5021 ft | 154 kts | 46° |
| 2026-05-01 12:07 | 45.80101 | 16.15741 | 5399 ft | 174 kts | 45° |
| 2026-05-01 12:07 | 45.80984 | 16.17081 | 5708 ft | 196 kts | 46° |
| 2026-05-01 12:07 | 45.82004 | 16.18548 | 5994 ft | 220 kts | 36° |
| 2026-05-01 12:08 | 45.83510 | 16.19242 | 6366 ft | 246 kts | 359° |
| 2026-05-01 12:08 | 45.85167 | 16.18400 | 7009 ft | 263 kts | 329° |
| 2026-05-01 12:08 | 45.86610 | 16.16722 | 7832 ft | 271 kts | 320° |
| 2026-05-01 12:08 | 45.87936 | 16.14723 | 8425 ft | 280 kts | 315° |
| 2026-05-01 12:09 | 45.89185 | 16.12574 | 9342 ft | 282 kts | 314° |
| 2026-05-01 12:09 | 45.90439 | 16.10373 | 10217 ft | 286 kts | 314° |
| 2026-05-01 12:09 | 45.91715 | 16.08119 | 10786 ft | 301 kts | 315° |
| 2026-05-01 12:09 | 45.93088 | 16.05704 | 11056 ft | 323 kts | 314° |
| 2026-05-01 12:10 | 45.94531 | 16.03151 | 11584 ft | 333 kts | 314° |
| 2026-05-01 12:10 | 45.97488 | 15.97875 | 13014 ft | 344 kts | 315° |
| 2026-05-01 12:10 | 45.99002 | 15.95175 | 13726 ft | 349 kts | 315° |
| 2026-05-01 12:11 | 46.02084 | 15.89686 | 15077 ft | 356 kts | 315° |
| 2026-05-01 12:11 | 46.03645 | 15.86897 | 15729 ft | 360 kts | 315° |
| 2026-05-01 12:11 | 46.05223 | 15.84079 | 16383 ft | 363 kts | 315° |
| 2026-05-01 12:12 | 46.06811 | 15.81243 | 17062 ft | 365 kts | 315° |
| 2026-05-01 12:12 | 46.08412 | 15.78380 | 17725 ft | 368 kts | 315° |
| 2026-05-01 12:12 | 46.10017 | 15.75503 | 18400 ft | 370 kts | 315° |
| 2026-05-01 12:12 | 46.11616 | 15.72632 | 18980 ft | 374 kts | 315° |
| 2026-05-01 12:13 | 46.13252 | 15.69694 | 19510 ft | 377 kts | 315° |
| 2026-05-01 12:13 | 46.14920 | 15.66694 | 20067 ft | 380 kts | 315° |
| 2026-05-01 12:13 | 46.16647 | 15.63806 | 20609 ft | 378 kts | 322° |
| 2026-05-01 12:13 | 46.18623 | 15.61431 | 21132 ft | 373 kts | 333° |
| 2026-05-01 12:14 | 46.20832 | 15.59466 | 21678 ft | 374 kts | 336° |
| 2026-05-01 12:14 | 46.23071 | 15.57529 | 22221 ft | 377 kts | 336° |
| 2026-05-01 12:14 | 46.25327 | 15.55570 | 22730 ft | 380 kts | 336° |
| 2026-05-01 12:14 | 46.27600 | 15.53590 | 23237 ft | 383 kts | 336° |
| 2026-05-01 12:15 | 46.29892 | 15.51590 | 23763 ft | 386 kts | 336° |
| 2026-05-01 12:15 | 46.32199 | 15.49574 | 24219 ft | 389 kts | 336° |
| 2026-05-01 12:15 | 46.34523 | 15.47539 | 24639 ft | 392 kts | 336° |
| 2026-05-01 12:15 | 46.36862 | 15.45493 | 25063 ft | 394 kts | 336° |
| 2026-05-01 12:16 | 46.39213 | 15.43430 | 25475 ft | 396 kts | 336° |
| 2026-05-01 12:16 | 46.41574 | 15.41352 | 25830 ft | 398 kts | 336° |
| 2026-05-01 12:16 | 46.43948 | 15.39260 | 26241 ft | 401 kts | 336° |
| 2026-05-01 12:16 | 46.46330 | 15.37160 | 26620 ft | 402 kts | 336° |
| 2026-05-01 12:17 | 46.48728 | 15.35046 | 27003 ft | 404 kts | 336° |
| 2026-05-01 12:17 | 46.51139 | 15.32920 | 27391 ft | 406 kts | 336° |
| 2026-05-01 12:17 | 46.53558 | 15.30780 | 27763 ft | 408 kts | 336° |
| 2026-05-01 12:17 | 46.55989 | 15.28629 | 28137 ft | 410 kts | 336° |
| 2026-05-01 12:18 | 46.58437 | 15.26464 | 28480 ft | 412 kts | 336° |
| 2026-05-01 12:18 | 46.60893 | 15.24291 | 28854 ft | 414 kts | 336° |
| 2026-05-01 12:18 | 46.63360 | 15.22105 | 29170 ft | 417 kts | 335° |
| 2026-05-01 12:18 | 46.65716 | 15.19578 | 29489 ft | 427 kts | 326° |
| 2026-05-01 12:19 | 46.67923 | 15.16641 | 29834 ft | 430 kts | 324° |
| 2026-05-01 12:19 | 46.70132 | 15.13690 | 30146 ft | 432 kts | 324° |
| 2026-05-01 12:19 | 46.72353 | 15.10723 | 30467 ft | 434 kts | 324° |
| 2026-05-01 12:19 | 46.74584 | 15.07744 | 30704 ft | 435 kts | 324° |
| 2026-05-01 12:20 | 46.76821 | 15.04761 | 30921 ft | 437 kts | 324° |
| 2026-05-01 12:20 | 46.79071 | 15.01762 | 31166 ft | 439 kts | 324° |
| 2026-05-01 12:20 | 46.81329 | 14.98750 | 31408 ft | 441 kts | 324° |
| 2026-05-01 12:20 | 46.83591 | 14.95726 | 31660 ft | 442 kts | 324° |
| 2026-05-01 12:21 | 46.85846 | 14.92701 | 31971 ft | 441 kts | 324° |
| 2026-05-01 12:21 | 46.88107 | 14.89656 | 32301 ft | 440 kts | 324° |
| 2026-05-01 12:21 | 46.90360 | 14.86621 | 32516 ft | 442 kts | 324° |
| 2026-05-01 12:21 | 46.91857 | 14.84607 | 32555 ft | 443 kts | 324° |
| 2026-05-01 12:22 | 46.94136 | 14.81540 | 32688 ft | 446 kts | 324° |
| 2026-05-01 12:22 | 46.96429 | 14.78451 | 32820 ft | 449 kts | 324° |
| 2026-05-01 12:22 | 46.98732 | 14.75346 | 32953 ft | 451 kts | 324° |
| 2026-05-01 12:22 | 47.01046 | 14.72221 | 33084 ft | 453 kts | 324° |
| 2026-05-01 12:23 | 47.03360 | 14.69085 | 33224 ft | 454 kts | 324° |
| 2026-05-01 12:23 | 47.05677 | 14.65939 | 33380 ft | 454 kts | 324° |
| 2026-05-01 12:23 | 47.07996 | 14.62791 | 33589 ft | 453 kts | 324° |
| 2026-05-01 12:23 | 47.10308 | 14.59648 | 33786 ft | 453 kts | 323° |
| 2026-05-01 12:24 | 47.12618 | 14.56504 | 33955 ft | 453 kts | 323° |
| 2026-05-01 12:24 | 47.14925 | 14.53360 | 34127 ft | 452 kts | 323° |
| 2026-05-01 12:24 | 47.17231 | 14.50215 | 34324 ft | 452 kts | 323° |
| 2026-05-01 12:24 | 47.19535 | 14.47072 | 34498 ft | 452 kts | 323° |
| 2026-05-01 12:25 | 47.21839 | 14.43926 | 34671 ft | 451 kts | 323° |
| 2026-05-01 12:25 | 47.26431 | 14.37638 | 35001 ft | 451 kts | 323° |
| 2026-05-01 12:25 | 47.28723 | 14.34493 | 35185 ft | 450 kts | 323° |
| 2026-05-01 12:26 | 47.31014 | 14.31349 | 35375 ft | 450 kts | 323° |
| 2026-05-01 12:26 | 47.35582 | 14.25066 | 35714 ft | 449 kts | 322° |
| 2026-05-01 12:26 | 47.37864 | 14.21922 | 35842 ft | 449 kts | 322° |
| 2026-05-01 12:27 | 47.40144 | 14.18776 | 35989 ft | 449 kts | 322° |
| 2026-05-01 12:27 | 47.44696 | 14.12471 | 36337 ft | 448 kts | 322° |
| 2026-05-01 12:28 | 47.49238 | 14.06171 | 36636 ft | 447 kts | 322° |
| 2026-05-01 12:28 | 47.51505 | 14.03024 | 36772 ft | 447 kts | 322° |
| 2026-05-01 12:28 | 47.56037 | 13.96718 | 37081 ft | 447 kts | 322° |
| 2026-05-01 12:29 | 47.58298 | 13.93560 | 37225 ft | 446 kts | 322° |
| 2026-05-01 12:29 | 47.65025 | 13.84145 | 37585 ft | 445 kts | 321° |
| 2026-05-01 12:30 | 47.69515 | 13.77857 | 37854 ft | 443 kts | 321° |
| 2026-05-01 12:30 | 47.71748 | 13.74718 | 37992 ft | 442 kts | 321° |
| 2026-05-01 12:30 | 47.73982 | 13.71574 | 38131 ft | 442 kts | 321° |
| 2026-05-01 12:31 | 47.76207 | 13.68445 | 38307 ft | 440 kts | 321° |
| 2026-05-01 12:31 | 47.80647 | 13.62184 | 38359 ft | 443 kts | 321° |
| 2026-05-01 12:32 | 47.85128 | 13.55843 | 38367 ft | 445 kts | 320° |
| 2026-05-01 12:32 | 47.91839 | 13.46303 | 38367 ft | 445 kts | 320° |
| 2026-05-01 12:33 | 47.96256 | 13.40010 | 38371 ft | 445 kts | 320° |
| 2026-05-01 12:33 | 48.00737 | 13.33615 | 38371 ft | 446 kts | 320° |
| 2026-05-01 12:34 | 48.05221 | 13.27213 | 38352 ft | 446 kts | 320° |
| 2026-05-01 12:34 | 48.09357 | 13.21287 | 38371 ft | 446 kts | 320° |
| 2026-05-01 12:35 | 48.13740 | 13.14990 | 38377 ft | 446 kts | 320° |
| 2026-05-01 12:35 | 48.18213 | 13.08537 | 38384 ft | 447 kts | 320° |
| 2026-05-01 12:36 | 48.22684 | 13.02062 | 38388 ft | 447 kts | 320° |
| 2026-05-01 12:36 | 48.27115 | 12.95957 | 38389 ft | 445 kts | 323° |
| 2026-05-01 12:37 | 48.31715 | 12.90062 | 38371 ft | 445 kts | 323° |
| 2026-05-01 12:37 | 48.36416 | 12.84022 | 38390 ft | 445 kts | 322° |
| 2026-05-01 12:38 | 48.41054 | 12.77913 | 38394 ft | 445 kts | 322° |
| 2026-05-01 12:38 | 48.45590 | 12.71880 | 38394 ft | 445 kts | 322° |
| 2026-05-01 12:39 | 48.50182 | 12.65763 | 38393 ft | 445 kts | 322° |
| 2026-05-01 12:39 | 48.54824 | 12.59594 | 38394 ft | 445 kts | 322° |
| 2026-05-01 12:40 | 48.59464 | 12.53422 | 38396 ft | 444 kts | 322° |
| 2026-05-01 12:40 | 48.64096 | 12.47241 | 38400 ft | 444 kts | 322° |
| 2026-05-01 12:41 | 48.68725 | 12.41038 | 38400 ft | 444 kts | 322° |
| 2026-05-01 12:41 | 48.73316 | 12.34858 | 38400 ft | 445 kts | 322° |
| 2026-05-01 12:42 | 48.77974 | 12.28591 | 38374 ft | 445 kts | 321° |
| 2026-05-01 12:42 | 48.82594 | 12.22355 | 38392 ft | 445 kts | 321° |
| 2026-05-01 12:43 | 48.85503 | 12.18415 | 38395 ft | 444 kts | 321° |